createdAt,value
2023-02-19T00:01:38.750Z,17.40
2023-02-19T00:04:41.648Z,19.57
2023-02-19T00:07:45.666Z,18.57
2023-02-19T00:10:48.402Z,11.17
2023-02-19T00:13:53.688Z,13.23
2023-02-19T00:16:56.375Z,16.83
2023-02-19T00:19:59.052Z,15.23
2023-02-19T00:23:03.058Z,12.33
2023-02-19T00:26:17.651Z,20.90
2023-02-19T00:29:22.658Z,15.13
2023-02-19T00:32:25.396Z,15.40
2023-02-19T00:35:28.100Z,13.73
2023-02-19T00:38:32.833Z,15.60
2023-02-19T00:41:35.834Z,12.13
2023-02-19T00:44:38.535Z,11.77
2023-02-19T00:47:41.259Z,17.80
2023-02-19T00:50:44.586Z,16.80
2023-02-19T00:53:49.228Z,13.43
2023-02-19T00:56:52.539Z,16.67
2023-02-19T00:59:55.298Z,12.93
2023-02-19T01:02:57.962Z,17.83
2023-02-19T01:06:01.045Z,18.20
2023-02-19T01:09:07.139Z,16.30
2023-02-19T01:12:09.822Z,15.63
2023-02-19T01:15:12.466Z,14.50
2023-02-19T01:18:15.170Z,14.23
2023-02-19T01:21:19.970Z,17.43
2023-02-19T01:24:24.028Z,16.93
2023-02-19T01:27:26.775Z,16.97
2023-02-19T01:30:29.559Z,19.43
2023-02-19T01:33:32.951Z,18.13
2023-02-19T01:36:36.837Z,15.17
2023-02-19T01:39:40.877Z,15.90
2023-02-19T01:42:44.808Z,19.80
2023-02-19T01:45:48.150Z,15.10
2023-02-19T01:48:50.911Z,16.97
2023-02-19T01:51:58.917Z,18.30
2023-02-19T01:55:05.946Z,18.00
2023-02-19T01:58:10.344Z,13.60
2023-02-19T02:01:13.778Z,14.67
2023-02-19T02:04:18.253Z,11.50
2023-02-19T02:07:38.794Z,12.97
2023-02-19T02:10:43.911Z,8.97
2023-02-19T02:13:47.212Z,12.43
2023-02-19T02:16:59.816Z,9.47
2023-02-19T02:20:28.746Z,6.90
2023-02-19T02:23:41.726Z,7.73
2023-02-19T02:26:59.617Z,8.80
2023-02-19T02:30:18.602Z,7.93
2023-02-19T02:33:30.176Z,9.60
2023-02-19T02:36:36.815Z,9.53
2023-02-19T02:39:42.161Z,7.87
2023-02-19T02:42:45.234Z,8.80
2023-02-19T02:45:49.320Z,9.43
2023-02-19T02:48:56.663Z,7.70
2023-02-19T02:52:21.342Z,12.57
2023-02-19T02:55:24.757Z,8.73
2023-02-19T02:58:29.060Z,10.83
2023-02-19T03:01:55.124Z,8.83
2023-02-19T03:05:25.555Z,6.50
2023-02-19T03:08:32.627Z,10.80
2023-02-19T03:11:54.797Z,6.83
2023-02-19T03:15:21.827Z,6.73
2023-02-19T03:18:46.817Z,13.00
2023-02-19T03:21:54.482Z,8.60
2023-02-19T03:25:19.234Z,9.53
2023-02-19T03:28:46.663Z,9.10
2023-02-19T03:31:53.366Z,12.80
2023-02-19T03:35:03.019Z,16.23
2023-02-19T03:38:10.840Z,14.50
2023-02-19T03:41:22.027Z,5.20
2023-02-19T03:44:36.699Z,9.27
2023-02-19T03:47:49.812Z,5.50
2023-02-19T03:51:05.808Z,7.10
2023-02-19T03:54:14.504Z,6.23
2023-02-19T03:57:21.867Z,7.57
2023-02-19T04:00:31.097Z,8.07
2023-02-19T04:03:38.528Z,7.07
2023-02-19T04:06:43.762Z,6.40
2023-02-19T04:09:50.391Z,4.50
2023-02-19T04:12:57.734Z,5.53
2023-02-19T04:16:07.754Z,6.27
2023-02-19T04:19:13.337Z,12.73
2023-02-19T04:22:18.369Z,7.30
2023-02-19T04:25:22.296Z,7.33
2023-02-19T04:28:26.114Z,7.50
2023-02-19T04:31:35.237Z,5.10
2023-02-19T04:34:38.015Z,8.37
2023-02-19T04:37:42.109Z,6.67
2023-02-19T04:40:44.900Z,7.97
2023-02-19T04:43:47.603Z,11.97
2023-02-19T04:46:50.389Z,7.50
2023-02-19T04:49:53.059Z,8.03
2023-02-19T04:52:57.357Z,13.80
2023-02-19T04:56:07.012Z,6.60
2023-02-19T04:59:09.772Z,6.80
2023-02-19T05:02:12.478Z,9.50
2023-02-19T05:05:15.202Z,7.33
2023-02-19T05:08:19.237Z,7.53
2023-02-19T05:11:24.050Z,10.77
2023-02-19T05:14:26.819Z,8.60
2023-02-19T05:17:29.475Z,11.27
2023-02-19T05:20:32.168Z,10.20
2023-02-19T05:23:36.231Z,7.97
2023-02-19T05:26:39.004Z,8.40
2023-02-19T05:29:41.653Z,6.93
2023-02-19T05:32:44.348Z,8.27
2023-02-19T05:35:48.660Z,7.33
2023-02-19T05:38:55.725Z,5.50
2023-02-19T05:41:58.428Z,8.17
2023-02-19T05:45:01.087Z,8.73
2023-02-19T05:48:04.330Z,9.77
2023-02-19T05:51:09.457Z,8.37
2023-02-19T05:54:13.683Z,5.43
2023-02-19T05:57:16.450Z,6.37
2023-02-19T06:00:21.455Z,6.43
2023-02-19T06:03:24.581Z,7.77
2023-02-19T06:06:28.020Z,7.00
2023-02-19T06:09:32.304Z,5.57
2023-02-19T06:12:34.991Z,6.10
2023-02-19T06:15:38.413Z,8.47
2023-02-19T06:18:41.588Z,7.70
2023-02-19T06:21:44.324Z,11.23
2023-02-19T06:24:48.745Z,12.70
2023-02-19T06:27:51.401Z,8.33
2023-02-19T06:30:54.027Z,6.50
2023-02-19T06:33:56.772Z,8.03
2023-02-19T06:36:59.824Z,8.93
2023-02-19T06:40:03.932Z,9.73
2023-02-19T06:43:06.643Z,10.07
2023-02-19T06:46:11.410Z,12.40
2023-02-19T06:49:15.297Z,10.73
2023-02-19T06:52:17.952Z,7.67
2023-02-19T06:55:21.991Z,12.67
2023-02-19T06:58:24.952Z,10.00
2023-02-19T07:01:29.000Z,7.50
2023-02-19T07:04:31.664Z,7.73
2023-02-19T07:07:34.346Z,4.73
2023-02-19T07:10:38.357Z,5.67
2023-02-19T07:13:41.268Z,7.47
2023-02-19T07:16:44.613Z,14.37
2023-02-19T07:19:47.364Z,9.53
2023-02-19T07:22:50.093Z,8.23
2023-02-19T07:25:54.149Z,10.50
2023-02-19T07:28:56.929Z,11.97
2023-02-19T07:31:59.593Z,6.93
2023-02-19T07:35:02.397Z,10.63
2023-02-19T07:38:05.164Z,9.17
2023-02-19T07:41:09.892Z,12.80
2023-02-19T07:44:16.389Z,7.97
2023-02-19T07:47:19.038Z,9.87
2023-02-19T07:50:21.744Z,15.60
2023-02-19T07:53:25.260Z,17.87
2023-02-19T07:56:29.794Z,15.03
2023-02-19T07:59:32.445Z,23.57
2023-02-19T08:02:52.827Z,24.53
2023-02-19T08:05:55.522Z,20.47
2023-02-19T08:08:58.515Z,15.20
2023-02-19T08:12:19.774Z,13.53
2023-02-19T08:15:22.590Z,17.00
2023-02-19T08:18:27.751Z,17.43
2023-02-19T08:21:31.308Z,34.40
2023-02-19T08:24:34.895Z,12.10
2023-02-19T08:27:38.973Z,13.70
2023-02-19T08:30:45.245Z,12.93
2023-02-19T08:33:47.999Z,8.57
2023-02-19T08:36:50.715Z,9.03
2023-02-19T08:39:53.406Z,7.97
2023-02-19T08:42:57.387Z,11.70
2023-02-19T08:46:00.530Z,14.43
2023-02-19T08:49:03.263Z,9.63
2023-02-19T08:52:05.942Z,9.50
2023-02-19T08:55:08.952Z,16.47
2023-02-19T08:58:13.454Z,7.40
2023-02-19T09:01:18.293Z,7.17
2023-02-19T09:04:21.374Z,13.23
2023-02-19T09:07:24.089Z,10.57
2023-02-19T09:10:26.845Z,9.83
2023-02-19T09:13:30.916Z,9.60
2023-02-19T09:16:33.572Z,12.80
2023-02-19T09:19:36.843Z,8.97
2023-02-19T09:22:39.545Z,13.37
2023-02-19T09:25:42.249Z,7.80
2023-02-19T09:28:46.260Z,14.67
2023-02-19T09:31:49.142Z,6.83
2023-02-19T09:34:51.823Z,8.80
2023-02-19T09:37:54.498Z,9.33
2023-02-19T09:40:58.298Z,9.97
2023-02-19T09:44:04.865Z,9.13
2023-02-19T09:47:16.474Z,8.63
2023-02-19T09:50:23.984Z,12.83
2023-02-19T09:53:36.195Z,11.67
2023-02-19T09:56:38.977Z,9.77
2023-02-19T09:59:47.282Z,7.23
2023-02-19T10:02:52.970Z,6.47
2023-02-19T10:05:56.464Z,9.10
2023-02-19T10:09:14.320Z,8.33
2023-02-19T10:12:27.569Z,10.33
2023-02-19T10:15:36.081Z,7.77
2023-02-19T10:18:42.295Z,7.80
2023-02-19T10:21:45.905Z,6.17
2023-02-19T10:24:53.095Z,10.20
2023-02-19T10:27:55.968Z,11.60
2023-02-19T10:31:01.542Z,6.37
2023-02-19T10:34:05.556Z,3.17
2023-02-19T10:37:15.378Z,10.67
2023-02-19T10:40:20.011Z,6.90
2023-02-19T10:43:32.958Z,7.13
2023-02-19T10:46:43.272Z,4.33
2023-02-19T10:49:48.734Z,6.57
2023-02-19T10:52:54.096Z,7.57
2023-02-19T10:56:09.116Z,8.53
2023-02-19T10:59:25.716Z,7.23
2023-02-19T11:02:30.996Z,5.90
2023-02-19T11:05:34.936Z,7.20
2023-02-19T11:08:58.616Z,5.87
2023-02-19T11:12:01.484Z,3.10
2023-02-19T11:15:21.082Z,4.17
2023-02-19T11:18:27.215Z,6.87
2023-02-19T11:21:33.081Z,4.30
2023-02-19T11:24:38.005Z,4.10
2023-02-19T11:27:56.022Z,5.20
2023-02-19T11:31:16.215Z,2.47
2023-02-19T11:34:34.962Z,4.47
2023-02-19T11:37:37.796Z,2.67
2023-02-19T11:40:44.823Z,3.87
2023-02-19T11:43:59.701Z,2.30
2023-02-19T11:47:26.798Z,4.27
2023-02-19T11:50:47.431Z,3.50
2023-02-19T11:54:01.964Z,6.75
2023-02-19T11:57:12.554Z,4.13
2023-02-19T12:00:24.800Z,4.30
2023-02-19T12:03:55.981Z,2.23
2023-02-19T12:07:12.272Z,4.30
2023-02-19T12:10:21.858Z,3.33
2023-02-19T12:13:34.246Z,8.47
2023-02-19T12:16:44.422Z,5.70
2023-02-19T12:20:03.676Z,6.37
2023-02-19T12:23:33.813Z,5.07
2023-02-19T12:26:44.749Z,7.00
2023-02-19T12:29:59.951Z,7.37
2023-02-19T12:33:28.558Z,3.90
2023-02-19T12:36:39.430Z,9.70
2023-02-19T12:39:48.774Z,4.33
2023-02-19T12:43:02.836Z,6.60
2023-02-19T12:46:09.257Z,4.60
2023-02-19T12:49:15.536Z,4.70
2023-02-19T12:52:22.454Z,4.53
2023-02-19T12:55:29.825Z,5.03
2023-02-19T12:58:39.812Z,7.20
2023-02-19T13:01:49.849Z,4.43
2023-02-19T13:04:59.716Z,2.93
2023-02-19T13:08:07.528Z,9.10
2023-02-19T13:11:17.492Z,8.70
2023-02-19T13:14:27.257Z,5.83
2023-02-19T13:17:38.496Z,6.83
2023-02-19T13:20:44.147Z,7.53
2023-02-19T13:24:03.053Z,5.63
2023-02-19T13:27:24.847Z,4.53
2023-02-19T13:30:41.998Z,5.00
2023-02-19T13:33:55.263Z,3.53
2023-02-19T13:36:59.663Z,4.77
2023-02-19T13:40:06.895Z,3.47
2023-02-19T13:43:26.457Z,3.87
2023-02-19T13:46:37.709Z,3.53
2023-02-19T13:49:43.406Z,5.73
2023-02-19T13:52:46.083Z,3.17
2023-02-19T13:55:53.902Z,6.07
2023-02-19T13:59:01.415Z,4.23
2023-02-19T14:02:26.580Z,3.13
2023-02-19T14:06:00.186Z,5.33
2023-02-19T14:09:02.882Z,5.40
2023-02-19T14:12:19.702Z,4.63
2023-02-19T14:15:45.159Z,3.37
2023-02-19T14:18:47.976Z,4.93
2023-02-19T14:21:50.785Z,6.10
2023-02-19T14:24:54.372Z,7.70
2023-02-19T14:28:02.391Z,3.83
2023-02-19T14:31:18.553Z,4.27
2023-02-19T14:34:25.126Z,2.47
2023-02-19T14:37:27.949Z,3.23
2023-02-19T14:40:36.579Z,5.80
2023-02-19T14:43:40.510Z,4.00
2023-02-19T14:46:50.553Z,3.03
2023-02-19T14:49:55.678Z,7.10
2023-02-19T14:53:01.344Z,5.33
2023-02-19T14:56:04.291Z,4.17
2023-02-19T14:59:10.282Z,5.30
2023-02-19T15:02:17.871Z,5.87
2023-02-19T15:05:25.088Z,5.47
2023-02-19T15:08:34.142Z,5.50
2023-02-19T15:11:38.417Z,4.97
2023-02-19T15:14:41.498Z,6.23
2023-02-19T15:17:45.759Z,6.63
2023-02-19T15:20:49.748Z,5.33
2023-02-19T15:23:54.914Z,6.67
2023-02-19T15:26:57.727Z,7.37
2023-02-19T15:30:00.411Z,7.90
2023-02-19T15:33:05.887Z,5.67
2023-02-19T15:36:10.640Z,8.10
2023-02-19T15:39:20.502Z,3.33
2023-02-19T15:42:26.773Z,8.67
2023-02-19T15:45:32.551Z,8.70
2023-02-19T15:48:44.217Z,9.23
2023-02-19T15:51:51.526Z,6.33
2023-02-19T15:54:58.447Z,7.10
2023-02-19T15:58:09.620Z,7.67
2023-02-19T16:01:18.031Z,8.30
2023-02-19T16:04:22.309Z,6.57
2023-02-19T16:07:27.344Z,2.83
2023-02-19T16:10:32.498Z,6.10
2023-02-19T16:13:36.183Z,4.37
2023-02-19T16:16:41.921Z,5.70
2023-02-19T16:19:49.747Z,6.13
2023-02-19T16:22:57.359Z,16.20
2023-02-19T16:26:01.971Z,3.20
2023-02-19T16:29:04.779Z,8.77
2023-02-19T16:32:09.544Z,3.83
2023-02-19T16:35:37.395Z,7.73
2023-02-19T16:38:40.052Z,8.03
2023-02-19T16:42:12.513Z,4.23
2023-02-19T16:45:15.403Z,5.50
2023-02-19T16:48:20.067Z,7.40
2023-02-19T16:51:26.457Z,9.27
2023-02-19T16:54:29.114Z,8.13
2023-02-19T16:57:31.769Z,3.57
2023-02-19T17:00:34.957Z,11.30
2023-02-19T17:03:39.564Z,9.97
2023-02-19T17:06:44.344Z,2.83
2023-02-19T17:09:47.219Z,6.03
2023-02-19T17:12:50.170Z,6.60
2023-02-19T17:15:52.917Z,5.63
2023-02-19T17:18:56.397Z,5.33
2023-02-19T17:22:00.608Z,6.53
2023-02-19T17:25:03.496Z,5.37
2023-02-19T17:28:06.474Z,8.03
2023-02-19T17:31:10.067Z,7.97
2023-02-19T17:34:12.994Z,5.93
2023-02-19T17:37:17.504Z,9.70
2023-02-19T17:40:32.204Z,7.30
2023-02-19T17:43:36.075Z,7.67
2023-02-19T17:46:39.443Z,8.80
2023-02-19T17:49:42.146Z,8.37
2023-02-19T17:52:46.287Z,9.30
2023-02-19T17:55:49.092Z,11.63
2023-02-19T17:58:51.850Z,16.60
2023-02-19T18:01:55.103Z,30.87
2023-02-19T18:04:57.811Z,18.23
2023-02-19T18:08:01.842Z,12.43
2023-02-19T18:11:04.778Z,6.67
2023-02-19T18:14:07.450Z,8.17
2023-02-19T18:17:10.273Z,10.33
2023-02-19T18:20:15.189Z,7.57
2023-02-19T18:23:20.499Z,5.87
2023-02-19T18:26:23.252Z,5.67
2023-02-19T18:29:28.810Z,10.00
2023-02-19T18:32:31.485Z,7.93
2023-02-19T18:35:34.930Z,6.93
2023-02-19T18:38:39.331Z,8.57
2023-02-19T18:41:42.211Z,9.53
2023-02-19T18:44:48.551Z,5.30
2023-02-19T18:47:51.345Z,8.97
2023-02-19T18:50:54.144Z,7.93
2023-02-19T18:53:58.369Z,5.17
2023-02-19T18:57:02.209Z,11.17
2023-02-19T19:00:06.368Z,6.27
2023-02-19T19:03:09.082Z,8.00
2023-02-19T19:06:11.969Z,7.53
2023-02-19T19:09:16.073Z,7.57
2023-02-19T19:12:18.857Z,25.63
2023-02-19T19:15:22.064Z,19.80
2023-02-19T19:18:25.261Z,12.57
2023-02-19T19:21:27.957Z,9.10
2023-02-19T19:24:31.994Z,8.53
2023-02-19T19:27:34.658Z,10.07
2023-02-19T19:30:37.851Z,13.13
2023-02-19T19:33:40.652Z,11.10
2023-02-19T19:36:43.393Z,13.30
2023-02-19T19:39:47.423Z,20.20
2023-02-19T19:42:52.136Z,11.67
2023-02-19T19:45:54.987Z,7.50
2023-02-19T19:48:57.660Z,5.97
2023-02-19T19:52:01.192Z,13.90
2023-02-19T19:55:05.760Z,11.13
2023-02-19T19:58:08.480Z,8.90
2023-02-19T20:01:11.502Z,6.93
2023-02-19T20:04:14.438Z,8.50
2023-02-19T20:07:17.296Z,7.20
2023-02-19T20:10:21.816Z,12.30
2023-02-19T20:13:24.716Z,7.87
2023-02-19T20:16:28.418Z,7.10
2023-02-19T20:19:31.193Z,11.40
2023-02-19T20:22:34.788Z,16.20
2023-02-19T20:25:38.840Z,5.50
2023-02-19T20:28:45.105Z,8.73
2023-02-19T20:31:52.546Z,14.57
2023-02-19T20:34:55.526Z,13.10
2023-02-19T20:37:58.246Z,13.03
2023-02-19T20:41:02.358Z,14.40
2023-02-19T20:44:05.533Z,5.17
2023-02-19T20:47:08.162Z,5.77
2023-02-19T20:50:11.758Z,8.07
2023-02-19T20:53:14.425Z,5.43
2023-02-19T20:56:18.432Z,7.47
2023-02-19T20:59:22.697Z,12.23
2023-02-19T21:02:29.152Z,5.37
2023-02-19T21:05:31.947Z,7.67
2023-02-19T21:08:35.430Z,9.60
2023-02-19T21:11:39.660Z,9.37
2023-02-19T21:14:43.170Z,8.60
2023-02-19T21:17:46.508Z,7.77
2023-02-19T21:20:49.211Z,9.80
2023-02-19T21:23:51.942Z,7.87
2023-02-19T21:26:56.136Z,8.63
2023-02-19T21:29:58.821Z,10.43
2023-02-19T21:33:01.665Z,12.13
2023-02-19T21:36:05.045Z,10.47
2023-02-19T21:39:10.017Z,8.33
2023-02-19T21:42:14.080Z,7.87
2023-02-19T21:45:16.933Z,7.97
2023-02-19T21:48:19.577Z,8.10
2023-02-19T21:51:28.372Z,8.80
2023-02-19T21:54:31.083Z,8.83
2023-02-19T21:57:35.133Z,10.37
2023-02-19T22:00:37.990Z,8.93
2023-02-19T22:03:40.690Z,7.90
2023-02-19T22:06:43.491Z,5.30
2023-02-19T22:09:46.275Z,7.70
2023-02-19T22:12:50.285Z,8.67
2023-02-19T22:15:52.947Z,12.57
2023-02-19T22:18:56.970Z,8.07
2023-02-19T22:21:59.644Z,10.93
2023-02-19T22:25:02.328Z,8.10
2023-02-19T22:28:07.617Z,8.53
2023-02-19T22:31:10.277Z,7.47
2023-02-19T22:34:13.547Z,5.10
2023-02-19T22:37:16.243Z,8.50
2023-02-19T22:40:18.917Z,12.87
2023-02-19T22:43:23.032Z,7.60
2023-02-19T22:46:28.248Z,6.57
2023-02-19T22:49:30.957Z,7.77
2023-02-19T22:52:33.788Z,7.77
2023-02-19T22:55:36.535Z,5.93
2023-02-19T22:58:40.791Z,14.10
2023-02-19T23:01:43.752Z,9.47
2023-02-19T23:04:46.416Z,9.53
2023-02-19T23:07:49.141Z,8.00
2023-02-19T23:10:51.817Z,9.77
2023-02-19T23:13:55.990Z,12.83
2023-02-19T23:16:58.858Z,5.53
2023-02-19T23:20:01.801Z,8.80
2023-02-19T23:23:04.490Z,8.70
2023-02-19T23:26:07.307Z,9.73
2023-02-19T23:29:11.674Z,9.23
2023-02-19T23:32:14.349Z,7.83
2023-02-19T23:35:17.238Z,9.10
2023-02-19T23:38:20.112Z,5.87
2023-02-19T23:41:22.855Z,8.03
2023-02-19T23:44:27.230Z,7.90
2023-02-19T23:47:30.801Z,7.33
2023-02-19T23:50:33.502Z,12.63
2023-02-19T23:53:36.185Z,6.43
2023-02-19T23:56:39.107Z,14.07
2023-02-19T23:59:43.171Z,9.00
